sensor_id;sensor_type;location;lat;lon;timestamp;P1;durP1;ratioP1;P2;durP2;ratioP2
35679;SDS011;21803;53.586;10.040;2023-03-01T00:02:11;1.58;;;1.13;;
35679;SDS011;21803;53.586;10.040;2023-03-01T00:04:37;2.10;;;1.08;;
35679;SDS011;21803;53.586;10.040;2023-03-01T00:07:02;1.08;;;0.80;;
35679;SDS011;21803;53.586;10.040;2023-03-01T00:09:28;0.93;;;0.80;;
35679;SDS011;21803;53.586;10.040;2023-03-01T00:11:53;1.13;;;0.82;;
35679;SDS011;21803;53.586;10.040;2023-03-01T00:14:19;1.42;;;1.00;;
35679;SDS011;21803;53.586;10.040;2023-03-01T00:16:44;4.40;;;1.00;;
35679;SDS011;21803;53.586;10.040;2023-03-01T00:19:14;1.63;;;1.00;;
35679;SDS011;21803;53.586;10.040;2023-03-01T00:21:41;1.40;;;0.95;;
35679;SDS011;21803;53.586;10.040;2023-03-01T00:24:08;1.13;;;0.88;;
35679;SDS011;21803;53.586;10.040;2023-03-01T00:26:34;0.82;;;0.70;;
35679;SDS011;21803;53.586;10.040;2023-03-01T00:28:59;1.15;;;0.80;;
35679;SDS011;21803;53.586;10.040;2023-03-01T00:31:26;1.25;;;0.70;;
35679;SDS011;21803;53.586;10.040;2023-03-01T00:33:54;1.45;;;1.00;;
35679;SDS011;21803;53.586;10.040;2023-03-01T00:36:22;1.05;;;0.95;;
35679;SDS011;21803;53.586;10.040;2023-03-01T00:38:49;1.17;;;0.90;;
35679;SDS011;21803;53.586;10.040;2023-03-01T00:41:16;1.17;;;0.80;;
35679;SDS011;21803;53.586;10.040;2023-03-01T00:43:43;1.45;;;1.00;;
35679;SDS011;21803;53.586;10.040;2023-03-01T00:46:10;1.55;;;0.90;;
35679;SDS011;21803;53.586;10.040;2023-03-01T00:48:37;1.10;;;1.00;;
35679;SDS011;21803;53.586;10.040;2023-03-01T00:51:11;1.40;;;0.80;;
35679;SDS011;21803;53.586;10.040;2023-03-01T00:53:38;1.77;;;0.90;;
35679;SDS011;21803;53.586;10.040;2023-03-01T00:56:04;1.77;;;0.90;;
35679;SDS011;21803;53.586;10.040;2023-03-01T00:58:31;1.05;;;0.85;;
35679;SDS011;21803;53.586;10.040;2023-03-01T01:00:56;1.50;;;0.98;;
35679;SDS011;21803;53.586;10.040;2023-03-01T01:03:22;1.17;;;1.00;;
35679;SDS011;21803;53.586;10.040;2023-03-01T01:05:49;1.13;;;1.00;;
35679;SDS011;21803;53.586;10.040;2023-03-01T01:08:16;1.15;;;0.90;;
35679;SDS011;21803;53.586;10.040;2023-03-01T01:10:43;1.83;;;1.05;;
35679;SDS011;21803;53.586;10.040;2023-03-01T01:13:09;1.30;;;0.80;;
35679;SDS011;21803;53.586;10.040;2023-03-01T01:15:35;0.90;;;0.80;;
35679;SDS011;21803;53.586;10.040;2023-03-01T01:18:00;1.30;;;0.80;;
35679;SDS011;21803;53.586;10.040;2023-03-01T01:20:26;1.02;;;0.82;;
35679;SDS011;21803;53.586;10.040;2023-03-01T01:22:52;1.05;;;0.80;;
35679;SDS011;21803;53.586;10.040;2023-03-01T01:25:18;1.10;;;0.90;;
35679;SDS011;21803;53.586;10.040;2023-03-01T01:27:43;1.58;;;1.10;;
35679;SDS011;21803;53.586;10.040;2023-03-01T01:30:09;1.55;;;1.05;;
35679;SDS011;21803;53.586;10.040;2023-03-01T01:32:35;1.27;;;0.88;;
35679;SDS011;21803;53.586;10.040;2023-03-01T01:35:01;1.92;;;1.10;;
35679;SDS011;21803;53.586;10.040;2023-03-01T01:37:26;1.52;;;0.90;;
35679;SDS011;21803;53.586;10.040;2023-03-01T01:39:56;1.02;;;0.90;;
35679;SDS011;21803;53.586;10.040;2023-03-01T01:42:24;1.15;;;0.98;;
35679;SDS011;21803;53.586;10.040;2023-03-01T01:45:15;1.38;;;1.10;;
35679;SDS011;21803;53.586;10.040;2023-03-01T01:47:54;1.00;;;0.90;;
35679;SDS011;21803;53.586;10.040;2023-03-01T01:50:23;1.58;;;1.00;;
35679;SDS011;21803;53.586;10.040;2023-03-01T01:52:50;1.77;;;1.10;;
35679;SDS011;21803;53.586;10.040;2023-03-01T01:55:20;2.00;;;1.17;;
35679;SDS011;21803;53.586;10.040;2023-03-01T01:57:52;1.48;;;1.08;;
35679;SDS011;21803;53.586;10.040;2023-03-01T02:00:22;1.88;;;1.17;;
35679;SDS011;21803;53.586;10.040;2023-03-01T02:02:50;1.67;;;1.10;;
35679;SDS011;21803;53.586;10.040;2023-03-01T02:08:20;1.67;;;1.17;;
35679;SDS011;21803;53.586;10.040;2023-03-01T02:10:47;1.27;;;1.02;;
35679;SDS011;21803;53.586;10.040;2023-03-01T02:13:15;1.50;;;1.02;;
35679;SDS011;21803;53.586;10.040;2023-03-01T02:15:41;1.17;;;1.08;;
35679;SDS011;21803;53.586;10.040;2023-03-01T02:18:08;1.38;;;1.17;;
35679;SDS011;21803;53.586;10.040;2023-03-01T02:23:21;1.40;;;1.20;;
35679;SDS011;21803;53.586;10.040;2023-03-01T02:25:51;1.20;;;0.98;;
35679;SDS011;21803;53.586;10.040;2023-03-01T02:28:26;1.45;;;1.13;;
35679;SDS011;21803;53.586;10.040;2023-03-01T02:30:58;1.48;;;1.10;;
35679;SDS011;21803;53.586;10.040;2023-03-01T02:33:42;1.85;;;1.30;;
35679;SDS011;21803;53.586;10.040;2023-03-01T02:36:11;1.98;;;1.50;;
35679;SDS011;21803;53.586;10.040;2023-03-01T02:38:40;1.55;;;1.10;;
35679;SDS011;21803;53.586;10.040;2023-03-01T02:41:06;1.20;;;1.00;;
35679;SDS011;21803;53.586;10.040;2023-03-01T02:43:35;1.20;;;0.98;;
35679;SDS011;21803;53.586;10.040;2023-03-01T02:46:05;1.65;;;1.10;;
35679;SDS011;21803;53.586;10.040;2023-03-01T02:56:39;1.75;;;1.17;;
35679;SDS011;21803;53.586;10.040;2023-03-01T02:59:05;2.05;;;1.00;;
35679;SDS011;21803;53.586;10.040;2023-03-01T03:01:32;1.13;;;1.02;;
35679;SDS011;21803;53.586;10.040;2023-03-01T03:04:04;1.55;;;1.20;;
35679;SDS011;21803;53.586;10.040;2023-03-01T03:06:42;1.77;;;1.40;;
35679;SDS011;21803;53.586;10.040;2023-03-01T03:09:11;1.35;;;1.10;;
35679;SDS011;21803;53.586;10.040;2023-03-01T03:11:38;1.70;;;1.30;;
35679;SDS011;21803;53.586;10.040;2023-03-01T03:14:05;1.63;;;1.00;;
35679;SDS011;21803;53.586;10.040;2023-03-01T03:16:37;1.60;;;1.13;;
35679;SDS011;21803;53.586;10.040;2023-03-01T03:19:07;1.15;;;1.00;;
35679;SDS011;21803;53.586;10.040;2023-03-01T03:21:32;1.70;;;1.20;;
35679;SDS011;21803;53.586;10.040;2023-03-01T03:23:58;1.83;;;1.17;;
35679;SDS011;21803;53.586;10.040;2023-03-01T03:26:24;1.50;;;1.00;;
35679;SDS011;21803;53.586;10.040;2023-03-01T03:28:50;2.10;;;1.20;;
35679;SDS011;21803;53.586;10.040;2023-03-01T03:31:16;1.65;;;1.27;;
35679;SDS011;21803;53.586;10.040;2023-03-01T03:33:41;1.42;;;1.00;;
35679;SDS011;21803;53.586;10.040;2023-03-01T03:36:07;1.83;;;1.27;;
35679;SDS011;21803;53.586;10.040;2023-03-01T03:38:38;1.63;;;1.38;;
35679;SDS011;21803;53.586;10.040;2023-03-01T03:41:05;1.20;;;1.10;;
35679;SDS011;21803;53.586;10.040;2023-03-01T03:43:33;1.38;;;1.15;;
35679;SDS011;21803;53.586;10.040;2023-03-01T03:46:01;1.73;;;1.17;;
35679;SDS011;21803;53.586;10.040;2023-03-01T03:48:33;1.13;;;1.00;;
35679;SDS011;21803;53.586;10.040;2023-03-01T03:51:00;1.52;;;1.00;;
35679;SDS011;21803;53.586;10.040;2023-03-01T03:53:27;1.13;;;1.00;;
35679;SDS011;21803;53.586;10.040;2023-03-01T03:55:54;1.60;;;1.30;;
35679;SDS011;21803;53.586;10.040;2023-03-01T03:58:22;1.38;;;1.20;;
35679;SDS011;21803;53.586;10.040;2023-03-01T04:00:50;1.50;;;1.10;;
35679;SDS011;21803;53.586;10.040;2023-03-01T04:03:24;1.75;;;1.27;;
35679;SDS011;21803;53.586;10.040;2023-03-01T04:05:51;1.63;;;1.10;;
35679;SDS011;21803;53.586;10.040;2023-03-01T04:08:20;1.65;;;1.38;;
35679;SDS011;21803;53.586;10.040;2023-03-01T04:10:49;1.48;;;1.17;;
35679;SDS011;21803;53.586;10.040;2023-03-01T04:13:19;1.33;;;1.13;;
35679;SDS011;21803;53.586;10.040;2023-03-01T04:15:50;1.42;;;1.20;;
35679;SDS011;21803;53.586;10.040;2023-03-01T04:18:16;1.65;;;1.05;;
35679;SDS011;21803;53.586;10.040;2023-03-01T04:20:44;1.67;;;1.30;;
35679;SDS011;21803;53.586;10.040;2023-03-01T04:23:17;1.23;;;1.13;;
35679;SDS011;21803;53.586;10.040;2023-03-01T04:28:20;1.30;;;1.20;;
35679;SDS011;21803;53.586;10.040;2023-03-01T04:30:49;1.35;;;1.20;;
35679;SDS011;21803;53.586;10.040;2023-03-01T04:33:15;1.58;;;1.30;;
35679;SDS011;21803;53.586;10.040;2023-03-01T04:35:40;1.65;;;1.30;;
35679;SDS011;21803;53.586;10.040;2023-03-01T04:38:06;1.50;;;1.30;;
35679;SDS011;21803;53.586;10.040;2023-03-01T04:40:32;1.80;;;1.30;;
35679;SDS011;21803;53.586;10.040;2023-03-01T04:42:58;1.83;;;1.40;;
35679;SDS011;21803;53.586;10.040;2023-03-01T04:45:23;2.25;;;1.00;;
35679;SDS011;21803;53.586;10.040;2023-03-01T04:47:49;1.83;;;1.25;;
35679;SDS011;21803;53.586;10.040;2023-03-01T04:50:17;1.83;;;1.23;;
35679;SDS011;21803;53.586;10.040;2023-03-01T04:52:48;2.13;;;1.17;;
35679;SDS011;21803;53.586;10.040;2023-03-01T04:55:13;2.33;;;1.20;;
35679;SDS011;21803;53.586;10.040;2023-03-01T04:57:39;1.80;;;1.20;;
35679;SDS011;21803;53.586;10.040;2023-03-01T05:00:07;2.38;;;1.40;;
35679;SDS011;21803;53.586;10.040;2023-03-01T05:02:45;1.50;;;1.20;;
35679;SDS011;21803;53.586;10.040;2023-03-01T05:05:13;1.15;;;1.05;;
35679;SDS011;21803;53.586;10.040;2023-03-01T05:07:39;1.88;;;1.23;;
35679;SDS011;21803;53.586;10.040;2023-03-01T05:10:04;1.23;;;1.13;;
35679;SDS011;21803;53.586;10.040;2023-03-01T05:12:30;1.90;;;1.27;;
35679;SDS011;21803;53.586;10.040;2023-03-01T05:14:55;1.67;;;1.10;;
35679;SDS011;21803;53.586;10.040;2023-03-01T05:17:21;2.22;;;1.50;;
35679;SDS011;21803;53.586;10.040;2023-03-01T05:19:46;1.73;;;1.20;;
35679;SDS011;21803;53.586;10.040;2023-03-01T05:22:12;2.97;;;1.50;;
35679;SDS011;21803;53.586;10.040;2023-03-01T05:24:37;1.63;;;1.15;;
35679;SDS011;21803;53.586;10.040;2023-03-01T05:27:03;1.70;;;1.27;;
35679;SDS011;21803;53.586;10.040;2023-03-01T05:29:30;1.55;;;1.30;;
35679;SDS011;21803;53.586;10.040;2023-03-01T05:31:59;1.55;;;1.25;;
35679;SDS011;21803;53.586;10.040;2023-03-01T05:34:33;1.55;;;1.30;;
35679;SDS011;21803;53.586;10.040;2023-03-01T05:37:00;1.13;;;1.02;;
35679;SDS011;21803;53.586;10.040;2023-03-01T05:39:27;1.42;;;1.10;;
35679;SDS011;21803;53.586;10.040;2023-03-01T05:41:54;2.28;;;1.30;;
35679;SDS011;21803;53.586;10.040;2023-03-01T05:44:21;2.15;;;1.40;;
35679;SDS011;21803;53.586;10.040;2023-03-01T05:46:47;1.67;;;1.20;;
35679;SDS011;21803;53.586;10.040;2023-03-01T05:49:13;1.55;;;1.10;;
35679;SDS011;21803;53.586;10.040;2023-03-01T05:51:39;2.10;;;1.40;;
35679;SDS011;21803;53.586;10.040;2023-03-01T05:54:05;1.30;;;1.10;;
35679;SDS011;21803;53.586;10.040;2023-03-01T05:56:32;1.88;;;1.20;;
35679;SDS011;21803;53.586;10.040;2023-03-01T05:59:01;1.20;;;1.10;;
35679;SDS011;21803;53.586;10.040;2023-03-01T06:01:28;1.38;;;1.20;;
35679;SDS011;21803;53.586;10.040;2023-03-01T06:03:54;2.45;;;1.25;;
35679;SDS011;21803;53.586;10.040;2023-03-01T06:06:20;1.25;;;1.10;;
35679;SDS011;21803;53.586;10.040;2023-03-01T06:08:46;1.50;;;1.20;;
35679;SDS011;21803;53.586;10.040;2023-03-01T06:11:11;1.42;;;1.20;;
35679;SDS011;21803;53.586;10.040;2023-03-01T06:13:37;2.55;;;1.40;;
35679;SDS011;21803;53.586;10.040;2023-03-01T06:16:05;1.30;;;1.00;;
35679;SDS011;21803;53.586;10.040;2023-03-01T06:18:32;1.73;;;1.40;;
35679;SDS011;21803;53.586;10.040;2023-03-01T06:20:57;1.30;;;1.10;;
35679;SDS011;21803;53.586;10.040;2023-03-01T06:23:23;1.20;;;1.00;;
35679;SDS011;21803;53.586;10.040;2023-03-01T06:25:49;1.40;;;1.20;;
35679;SDS011;21803;53.586;10.040;2023-03-01T06:28:15;1.98;;;1.40;;
35679;SDS011;21803;53.586;10.040;2023-03-01T06:30:40;1.60;;;1.30;;
35679;SDS011;21803;53.586;10.040;2023-03-01T06:33:06;1.95;;;1.30;;
35679;SDS011;21803;53.586;10.040;2023-03-01T06:35:31;1.70;;;1.25;;
35679;SDS011;21803;53.586;10.040;2023-03-01T06:37:57;1.00;;;0.90;;
35679;SDS011;21803;53.586;10.040;2023-03-01T06:40:25;1.45;;;1.20;;
35679;SDS011;21803;53.586;10.040;2023-03-01T06:42:50;2.20;;;1.50;;
35679;SDS011;21803;53.586;10.040;2023-03-01T06:45:17;1.75;;;1.30;;
35679;SDS011;21803;53.586;10.040;2023-03-01T06:47:44;1.40;;;1.10;;
35679;SDS011;21803;53.586;10.040;2023-03-01T06:50:10;2.25;;;1.20;;
35679;SDS011;21803;53.586;10.040;2023-03-01T06:52:36;1.88;;;1.20;;
35679;SDS011;21803;53.586;10.040;2023-03-01T06:55:01;1.65;;;1.30;;
35679;SDS011;21803;53.586;10.040;2023-03-01T06:57:27;1.70;;;1.30;;
35679;SDS011;21803;53.586;10.040;2023-03-01T06:59:53;2.20;;;1.48;;
35679;SDS011;21803;53.586;10.040;2023-03-01T07:02:18;1.85;;;1.35;;
35679;SDS011;21803;53.586;10.040;2023-03-01T07:04:44;1.27;;;1.10;;
35679;SDS011;21803;53.586;10.040;2023-03-01T07:07:09;1.63;;;1.10;;
35679;SDS011;21803;53.586;10.040;2023-03-01T07:09:35;1.45;;;1.10;;
35679;SDS011;21803;53.586;10.040;2023-03-01T07:12:01;1.77;;;1.42;;
35679;SDS011;21803;53.586;10.040;2023-03-01T07:14:26;2.10;;;1.38;;
35679;SDS011;21803;53.586;10.040;2023-03-01T07:16:52;1.85;;;1.23;;
35679;SDS011;21803;53.586;10.040;2023-03-01T07:19:18;2.33;;;1.33;;
35679;SDS011;21803;53.586;10.040;2023-03-01T07:21:44;1.80;;;1.30;;
35679;SDS011;21803;53.586;10.040;2023-03-01T07:24:09;1.10;;;1.00;;
35679;SDS011;21803;53.586;10.040;2023-03-01T07:26:35;1.58;;;1.40;;
35679;SDS011;21803;53.586;10.040;2023-03-01T07:29:01;1.70;;;1.20;;
35679;SDS011;21803;53.586;10.040;2023-03-01T07:31:28;1.65;;;1.27;;
35679;SDS011;21803;53.586;10.040;2023-03-01T07:33:54;2.05;;;1.45;;
35679;SDS011;21803;53.586;10.040;2023-03-01T07:36:20;1.30;;;1.10;;
35679;SDS011;21803;53.586;10.040;2023-03-01T07:38:47;2.15;;;1.42;;
35679;SDS011;21803;53.586;10.040;2023-03-01T07:41:13;1.52;;;1.23;;
35679;SDS011;21803;53.586;10.040;2023-03-01T07:43:39;1.88;;;1.13;;
35679;SDS011;21803;53.586;10.040;2023-03-01T07:46:05;1.83;;;1.30;;
35679;SDS011;21803;53.586;10.040;2023-03-01T07:48:31;1.50;;;1.10;;
35679;SDS011;21803;53.586;10.040;2023-03-01T07:50:58;1.40;;;1.20;;
35679;SDS011;21803;53.586;10.040;2023-03-01T07:53:24;1.60;;;1.17;;
35679;SDS011;21803;53.586;10.040;2023-03-01T07:55:50;1.67;;;1.10;;
35679;SDS011;21803;53.586;10.040;2023-03-01T07:58:24;1.67;;;1.30;;
35679;SDS011;21803;53.586;10.040;2023-03-01T08:00:50;1.67;;;1.17;;
35679;SDS011;21803;53.586;10.040;2023-03-01T08:03:15;1.88;;;1.42;;
35679;SDS011;21803;53.586;10.040;2023-03-01T08:05:41;1.92;;;1.30;;
35679;SDS011;21803;53.586;10.040;2023-03-01T08:08:06;1.58;;;1.10;;
35679;SDS011;21803;53.586;10.040;2023-03-01T08:10:32;2.10;;;1.20;;
35679;SDS011;21803;53.586;10.040;2023-03-01T08:12:57;1.55;;;1.20;;
35679;SDS011;21803;53.586;10.040;2023-03-01T08:15:23;1.85;;;1.23;;
35679;SDS011;21803;53.586;10.040;2023-03-01T08:17:49;1.90;;;1.20;;
35679;SDS011;21803;53.586;10.040;2023-03-01T08:20:15;1.98;;;1.38;;
35679;SDS011;21803;53.586;10.040;2023-03-01T08:22:41;1.73;;;1.30;;
35679;SDS011;21803;53.586;10.040;2023-03-01T08:25:07;1.38;;;1.13;;
35679;SDS011;21803;53.586;10.040;2023-03-01T08:27:33;1.95;;;1.40;;
35679;SDS011;21803;53.586;10.040;2023-03-01T08:29:58;2.22;;;1.48;;
35679;SDS011;21803;53.586;10.040;2023-03-01T08:32:24;1.63;;;1.20;;
35679;SDS011;21803;53.586;10.040;2023-03-01T08:34:49;1.42;;;1.15;;
35679;SDS011;21803;53.586;10.040;2023-03-01T08:37:15;1.67;;;1.33;;
35679;SDS011;21803;53.586;10.040;2023-03-01T08:39:40;2.00;;;1.20;;
35679;SDS011;21803;53.586;10.040;2023-03-01T08:42:06;1.73;;;1.25;;
35679;SDS011;21803;53.586;10.040;2023-03-01T08:44:32;1.42;;;1.20;;
35679;SDS011;21803;53.586;10.040;2023-03-01T08:46:58;1.27;;;1.10;;
35679;SDS011;21803;53.586;10.040;2023-03-01T08:49:24;2.17;;;1.50;;
35679;SDS011;21803;53.586;10.040;2023-03-01T08:51:50;2.13;;;1.30;;
35679;SDS011;21803;53.586;10.040;2023-03-01T08:54:17;1.73;;;1.15;;
35679;SDS011;21803;53.586;10.040;2023-03-01T08:56:45;1.55;;;1.10;;
35679;SDS011;21803;53.586;10.040;2023-03-01T08:59:11;1.63;;;1.08;;
35679;SDS011;21803;53.586;10.040;2023-03-01T09:01:38;2.03;;;1.25;;
35679;SDS011;21803;53.586;10.040;2023-03-01T09:04:05;1.55;;;1.08;;
35679;SDS011;21803;53.586;10.040;2023-03-01T09:06:31;1.48;;;1.27;;
35679;SDS011;21803;53.586;10.040;2023-03-01T09:09:00;1.50;;;1.20;;
35679;SDS011;21803;53.586;10.040;2023-03-01T09:11:27;1.90;;;1.20;;
35679;SDS011;21803;53.586;10.040;2023-03-01T09:13:53;1.80;;;1.30;;
35679;SDS011;21803;53.586;10.040;2023-03-01T09:16:20;1.58;;;1.30;;
35679;SDS011;21803;53.586;10.040;2023-03-01T09:18:51;1.77;;;1.05;;
35679;SDS011;21803;53.586;10.040;2023-03-01T09:21:18;1.42;;;1.13;;
35679;SDS011;21803;53.586;10.040;2023-03-01T09:23:46;1.55;;;1.20;;
35679;SDS011;21803;53.586;10.040;2023-03-01T09:26:14;1.20;;;1.10;;
35679;SDS011;21803;53.586;10.040;2023-03-01T09:28:43;1.90;;;1.42;;
35679;SDS011;21803;53.586;10.040;2023-03-01T09:31:10;1.40;;;1.02;;
35679;SDS011;21803;53.586;10.040;2023-03-01T09:33:37;1.65;;;1.25;;
35679;SDS011;21803;53.586;10.040;2023-03-01T09:36:05;1.52;;;1.30;;
35679;SDS011;21803;53.586;10.040;2023-03-01T09:38:32;1.20;;;1.02;;
35679;SDS011;21803;53.586;10.040;2023-03-01T09:40:58;2.20;;;1.50;;
35679;SDS011;21803;53.586;10.040;2023-03-01T09:46:08;1.25;;;1.13;;
35679;SDS011;21803;53.586;10.040;2023-03-01T09:48:43;1.25;;;1.05;;
35679;SDS011;21803;53.586;10.040;2023-03-01T09:51:16;1.77;;;1.20;;
35679;SDS011;21803;53.586;10.040;2023-03-01T09:53:44;2.58;;;1.40;;
35679;SDS011;21803;53.586;10.040;2023-03-01T09:56:16;1.50;;;1.08;;
35679;SDS011;21803;53.586;10.040;2023-03-01T09:58:48;1.50;;;1.10;;
35679;SDS011;21803;53.586;10.040;2023-03-01T10:01:29;1.92;;;1.10;;
35679;SDS011;21803;53.586;10.040;2023-03-01T10:06:38;1.80;;;1.20;;
35679;SDS011;21803;53.586;10.040;2023-03-01T10:09:12;1.73;;;1.08;;
35679;SDS011;21803;53.586;10.040;2023-03-01T10:11:48;2.03;;;1.20;;
35679;SDS011;21803;53.586;10.040;2023-03-01T10:14:30;1.48;;;1.10;;
35679;SDS011;21803;53.586;10.040;2023-03-01T10:17:12;1.85;;;1.27;;
35679;SDS011;21803;53.586;10.040;2023-03-01T10:19:49;1.25;;;0.88;;
35679;SDS011;21803;53.586;10.040;2023-03-01T10:22:21;1.40;;;1.08;;
35679;SDS011;21803;53.586;10.040;2023-03-01T10:24:53;1.83;;;1.30;;
35679;SDS011;21803;53.586;10.040;2023-03-01T10:27:22;1.58;;;1.17;;
35679;SDS011;21803;53.586;10.040;2023-03-01T10:29:50;2.13;;;1.20;;
35679;SDS011;21803;53.586;10.040;2023-03-01T10:32:42;1.48;;;1.23;;
35679;SDS011;21803;53.586;10.040;2023-03-01T10:35:22;1.45;;;1.17;;
35679;SDS011;21803;53.586;10.040;2023-03-01T10:37:57;1.40;;;1.13;;
35679;SDS011;21803;53.586;10.040;2023-03-01T10:40:27;1.42;;;1.08;;
35679;SDS011;21803;53.586;10.040;2023-03-01T10:42:53;1.55;;;1.20;;
35679;SDS011;21803;53.586;10.040;2023-03-01T10:45:37;1.35;;;1.10;;
35679;SDS011;21803;53.586;10.040;2023-03-01T10:48:17;1.88;;;1.15;;
35679;SDS011;21803;53.586;10.040;2023-03-01T10:51:14;1.38;;;1.10;;
35679;SDS011;21803;53.586;10.040;2023-03-01T10:53:42;1.27;;;1.10;;
35679;SDS011;21803;53.586;10.040;2023-03-01T10:56:14;1.58;;;1.30;;
35679;SDS011;21803;53.586;10.040;2023-03-01T11:01:28;1.38;;;1.08;;
35679;SDS011;21803;53.586;10.040;2023-03-01T11:06:31;1.48;;;1.08;;
35679;SDS011;21803;53.586;10.040;2023-03-01T11:09:14;1.13;;;1.00;;
35679;SDS011;21803;53.586;10.040;2023-03-01T11:11:41;1.42;;;1.20;;
35679;SDS011;21803;53.586;10.040;2023-03-01T11:16:40;1.50;;;1.20;;
35679;SDS011;21803;53.586;10.040;2023-03-01T11:21:34;2.05;;;1.05;;
35679;SDS011;21803;53.586;10.040;2023-03-01T11:24:03;1.30;;;0.98;;
35679;SDS011;21803;53.586;10.040;2023-03-01T11:26:31;1.60;;;1.20;;
35679;SDS011;21803;53.586;10.040;2023-03-01T11:29:03;1.85;;;1.25;;
35679;SDS011;21803;53.586;10.040;2023-03-01T11:31:32;1.63;;;1.10;;
35679;SDS011;21803;53.586;10.040;2023-03-01T11:34:00;1.45;;;1.10;;
35679;SDS011;21803;53.586;10.040;2023-03-01T11:36:50;1.35;;;1.02;;
35679;SDS011;21803;53.586;10.040;2023-03-01T11:42:26;1.90;;;1.25;;
35679;SDS011;21803;53.586;10.040;2023-03-01T11:45:05;1.45;;;1.30;;
35679;SDS011;21803;53.586;10.040;2023-03-01T11:47:59;2.25;;;1.30;;
35679;SDS011;21803;53.586;10.040;2023-03-01T11:50:49;1.10;;;0.90;;
35679;SDS011;21803;53.586;10.040;2023-03-01T11:53:26;1.58;;;0.93;;
35679;SDS011;21803;53.586;10.040;2023-03-01T12:06:46;1.27;;;0.95;;
35679;SDS011;21803;53.586;10.040;2023-03-01T12:12:37;1.77;;;1.13;;
35679;SDS011;21803;53.586;10.040;2023-03-01T12:26:30;1.25;;;1.10;;
35679;SDS011;21803;53.586;10.040;2023-03-01T12:29:18;2.58;;;1.00;;
35679;SDS011;21803;53.586;10.040;2023-03-01T12:32:09;0.82;;;0.80;;
35679;SDS011;21803;53.586;10.040;2023-03-01T12:46:04;1.42;;;1.10;;
35679;SDS011;21803;53.586;10.040;2023-03-01T12:51:08;1.67;;;0.98;;
35679;SDS011;21803;53.586;10.040;2023-03-01T12:53:40;3.38;;;0.90;;
35679;SDS011;21803;53.586;10.040;2023-03-01T12:56:10;1.10;;;0.90;;
35679;SDS011;21803;53.586;10.040;2023-03-01T12:58:59;1.27;;;0.95;;
35679;SDS011;21803;53.586;10.040;2023-03-01T13:07:11;1.30;;;1.10;;
35679;SDS011;21803;53.586;10.040;2023-03-01T13:10:06;1.17;;;1.00;;
35679;SDS011;21803;53.586;10.040;2023-03-01T13:20:19;1.25;;;0.90;;
35679;SDS011;21803;53.586;10.040;2023-03-01T13:22:48;1.73;;;1.00;;
35679;SDS011;21803;53.586;10.040;2023-03-01T13:25:27;1.38;;;1.02;;
35679;SDS011;21803;53.586;10.040;2023-03-01T13:27:53;1.63;;;1.27;;
35679;SDS011;21803;53.586;10.040;2023-03-01T13:30:57;1.00;;;0.90;;
35679;SDS011;21803;53.586;10.040;2023-03-01T13:35:52;1.02;;;0.90;;
35679;SDS011;21803;53.586;10.040;2023-03-01T13:41:14;0.80;;;0.80;;
35679;SDS011;21803;53.586;10.040;2023-03-01T13:43:42;1.20;;;0.90;;
35679;SDS011;21803;53.586;10.040;2023-03-01T13:46:20;1.15;;;0.80;;
35679;SDS011;21803;53.586;10.040;2023-03-01T13:48:49;1.35;;;0.90;;
35679;SDS011;21803;53.586;10.040;2023-03-01T13:51:19;0.98;;;0.90;;
35679;SDS011;21803;53.586;10.040;2023-03-01T13:53:50;1.20;;;1.00;;
35679;SDS011;21803;53.586;10.040;2023-03-01T13:56:23;1.17;;;1.00;;
35679;SDS011;21803;53.586;10.040;2023-03-01T14:01:41;1.00;;;0.90;;
35679;SDS011;21803;53.586;10.040;2023-03-01T14:04:23;1.35;;;1.02;;
35679;SDS011;21803;53.586;10.040;2023-03-01T14:07:11;1.10;;;1.00;;
35679;SDS011;21803;53.586;10.040;2023-03-01T14:09:39;1.00;;;0.80;;
35679;SDS011;21803;53.586;10.040;2023-03-01T14:14:56;1.17;;;0.90;;
35679;SDS011;21803;53.586;10.040;2023-03-01T14:20:16;1.30;;;0.90;;
35679;SDS011;21803;53.586;10.040;2023-03-01T14:22:47;1.05;;;0.95;;
35679;SDS011;21803;53.586;10.040;2023-03-01T14:25:35;1.55;;;0.93;;
35679;SDS011;21803;53.586;10.040;2023-03-01T14:28:19;0.95;;;0.80;;
35679;SDS011;21803;53.586;10.040;2023-03-01T14:30:50;1.05;;;0.95;;
35679;SDS011;21803;53.586;10.040;2023-03-01T14:33:18;1.17;;;0.88;;
35679;SDS011;21803;53.586;10.040;2023-03-01T14:36:02;0.90;;;0.73;;
35679;SDS011;21803;53.586;10.040;2023-03-01T14:38:34;1.15;;;0.93;;
35679;SDS011;21803;53.586;10.040;2023-03-01T14:41:05;0.85;;;0.80;;
35679;SDS011;21803;53.586;10.040;2023-03-01T14:43:37;1.05;;;0.80;;
35679;SDS011;21803;53.586;10.040;2023-03-01T14:46:04;0.90;;;0.80;;
35679;SDS011;21803;53.586;10.040;2023-03-01T14:48:30;1.27;;;0.90;;
35679;SDS011;21803;53.586;10.040;2023-03-01T14:50:57;1.08;;;0.80;;
35679;SDS011;21803;53.586;10.040;2023-03-01T14:53:24;0.77;;;0.77;;
35679;SDS011;21803;53.586;10.040;2023-03-01T14:55:52;0.80;;;0.73;;
35679;SDS011;21803;53.586;10.040;2023-03-01T14:58:27;1.40;;;0.95;;
35679;SDS011;21803;53.586;10.040;2023-03-01T15:00:54;0.88;;;0.80;;
35679;SDS011;21803;53.586;10.040;2023-03-01T15:03:33;0.98;;;0.80;;
35679;SDS011;21803;53.586;10.040;2023-03-01T15:06:02;1.08;;;0.90;;
35679;SDS011;21803;53.586;10.040;2023-03-01T15:08:29;1.00;;;0.80;;
35679;SDS011;21803;53.586;10.040;2023-03-01T15:13:31;1.98;;;0.93;;
35679;SDS011;21803;53.586;10.040;2023-03-01T15:16:08;1.25;;;0.77;;
35679;SDS011;21803;53.586;10.040;2023-03-01T15:18:57;1.17;;;0.93;;
35679;SDS011;21803;53.586;10.040;2023-03-01T15:21:32;0.88;;;0.77;;
35679;SDS011;21803;53.586;10.040;2023-03-01T15:24:17;1.13;;;0.85;;
35679;SDS011;21803;53.586;10.040;2023-03-01T15:26:52;1.05;;;0.90;;
35679;SDS011;21803;53.586;10.040;2023-03-01T15:29:21;1.60;;;0.88;;
35679;SDS011;21803;53.586;10.040;2023-03-01T15:32:01;0.95;;;0.70;;
35679;SDS011;21803;53.586;10.040;2023-03-01T15:34:30;1.13;;;0.70;;
35679;SDS011;21803;53.586;10.040;2023-03-01T15:37:02;1.05;;;0.90;;
35679;SDS011;21803;53.586;10.040;2023-03-01T15:42:02;0.80;;;0.80;;
35679;SDS011;21803;53.586;10.040;2023-03-01T15:44:48;0.93;;;0.80;;
35679;SDS011;21803;53.586;10.040;2023-03-01T15:47:29;1.05;;;0.80;;
35679;SDS011;21803;53.586;10.040;2023-03-01T15:49:56;0.95;;;0.73;;
35679;SDS011;21803;53.586;10.040;2023-03-01T15:52:35;0.93;;;0.82;;
35679;SDS011;21803;53.586;10.040;2023-03-01T15:55:06;0.80;;;0.73;;
35679;SDS011;21803;53.586;10.040;2023-03-01T15:57:42;0.95;;;0.80;;
35679;SDS011;21803;53.586;10.040;2023-03-01T16:00:10;1.05;;;0.95;;
35679;SDS011;21803;53.586;10.040;2023-03-01T16:02:38;1.08;;;0.80;;
35679;SDS011;21803;53.586;10.040;2023-03-01T16:05:04;1.13;;;0.82;;
35679;SDS011;21803;53.586;10.040;2023-03-01T16:07:30;1.10;;;0.98;;
35679;SDS011;21803;53.586;10.040;2023-03-01T16:09:56;1.00;;;0.90;;
35679;SDS011;21803;53.586;10.040;2023-03-01T16:12:22;0.90;;;0.70;;
35679;SDS011;21803;53.586;10.040;2023-03-01T16:14:49;0.85;;;0.80;;
35679;SDS011;21803;53.586;10.040;2023-03-01T16:17:15;0.80;;;0.77;;
35679;SDS011;21803;53.586;10.040;2023-03-01T16:19:40;0.68;;;0.68;;
35679;SDS011;21803;53.586;10.040;2023-03-01T16:22:06;1.73;;;0.70;;
35679;SDS011;21803;53.586;10.040;2023-03-01T16:24:35;1.20;;;0.95;;
35679;SDS011;21803;53.586;10.040;2023-03-01T16:27:01;2.05;;;0.82;;
35679;SDS011;21803;53.586;10.040;2023-03-01T16:29:27;0.80;;;0.80;;
35679;SDS011;21803;53.586;10.040;2023-03-01T16:31:54;1.00;;;0.90;;
35679;SDS011;21803;53.586;10.040;2023-03-01T16:34:19;1.35;;;0.90;;